Time;durP1;ratioP1;P1;durP2;ratioP2;P2;SDS_P1;SDS_P2;PMS_P1;PMS_P2;Temp;Humidity;BMP_temperature;BMP_pressure;BME280_temperature;BME280_humidity;BME280_pressure;Samples;Min_cycle;Max_cycle;Signal;HPM_P1;HPM_P2
2022/03/09 00:00:25;;;;;;;11.40;2.57;;;19.20;71.60;;;;;;4955800;28;97688;-65
2022/03/09 00:02:57;;;;;;;11.15;2.13;;;19.20;71.50;;;;;;4967054;28;95740;-65
2022/03/09 00:05:27;;;;;;;11.57;2.47;;;19.20;71.50;;;;;;4964686;28;96371;-64
2022/03/09 00:07:58;;;;;;;6.97;1.77;;;19.30;71.70;;;;;;4963937;28;95662;-65
2022/03/09 00:10:29;;;;;;;;;;;19.40;71.20;;;;;;4952485;28;95956;-63
2022/03/09 00:13:01;;;;;;;5.78;1.58;;;19.50;71.30;;;;;;4960214;28;95783;-63
2022/03/09 00:15:36;;;;;;;8.13;1.90;;;19.60;71.20;;;;;;4961043;28;98230;-62
2022/03/09 00:18:07;;;;;;;6.97;1.80;;;19.80;71.10;;;;;;4968619;28;95721;-65
2022/03/09 00:20:40;;;;;;;9.07;2.05;;;19.80;70.90;;;;;;4968452;28;95278;-64
2022/03/09 00:23:11;;;;;;;7.03;2.10;;;19.90;70.90;;;;;;4968404;28;95850;-65
2022/03/09 00:25:42;;;;;;;8.85;1.85;;;20.00;70.40;;;;;;4965910;28;95580;-62
2022/03/09 00:28:12;;;;;;;;;;;20.10;70.40;;;;;;4967180;28;95875;-63
2022/03/09 00:30:43;;;;;;;5.82;1.98;;;20.20;70.20;;;;;;4949533;28;95445;-62
2022/03/09 00:33:13;;;;;;;5.65;2.15;;;20.30;70.20;;;;;;4966806;28;95892;-64
2022/03/09 00:35:44;;;;;;;6.80;2.03;;;20.30;69.90;;;;;;4958280;28;96317;-61
2022/03/09 00:38:15;;;;;;;3.50;1.40;;;20.40;69.70;;;;;;4967163;28;95588;-63
2022/03/09 00:40:48;;;;;;;8.07;1.98;;;20.50;70.10;;;;;;4979806;28;96123;-63
2022/03/09 00:43:19;;;;;;;9.23;2.45;;;20.50;66.90;;;;;;4963841;28;97269;-63
2022/03/09 00:45:51;;;;;;;10.20;2.38;;;20.40;68.50;;;;;;4958135;28;96476;-64
2022/03/09 00:48:22;;;;;;;4.05;1.77;;;20.40;68.50;;;;;;4972040;28;95750;-62
2022/03/09 00:50:55;;;;;;;8.73;2.53;;;20.40;68.50;;;;;;4971602;28;95289;-63
2022/03/09 00:53:26;;;;;;;8.55;2.40;;;20.30;68.00;;;;;;4954487;28;97850;-63
2022/03/09 00:55:56;;;;;;;5.77;2.43;;;20.30;67.90;;;;;;4970605;28;95921;-64
2022/03/09 00:58:28;;;;;;;10.57;2.30;;;20.30;68.00;;;;;;4967939;28;95307;-64
2022/03/09 01:00:59;;;;;;;;;;;20.30;67.40;;;;;;4957363;28;95352;-64
2022/03/09 01:03:31;;;;;;;11.48;3.33;;;20.30;68.20;;;;;;4967181;28;96037;-63
2022/03/09 01:06:02;;;;;;;4.57;2.13;;;20.20;68.00;;;;;;4966876;28;96551;-64
2022/03/09 01:08:34;;;;;;;8.85;2.25;;;20.20;67.70;;;;;;4966675;28;95749;-63
2022/03/09 01:11:06;;;;;;;9.77;2.05;;;20.20;67.70;;;;;;4967647;28;95656;-64
2022/03/09 01:13:37;;;;;;;8.38;2.30;;;20.30;67.30;;;;;;4967538;28;95497;-63
2022/03/09 01:16:08;;;;;;;9.15;1.98;;;20.30;67.30;;;;;;4957748;28;96111;-62
2022/03/09 01:18:39;;;;;;;7.82;1.83;;;20.30;67.20;;;;;;4963720;28;96268;-62
2022/03/09 01:21:10;;;;;;;6.43;1.83;;;20.30;67.30;;;;;;4965904;28;95345;-62
2022/03/09 01:23:41;;;;;;;9.50;2.45;;;20.30;67.00;;;;;;4963690;28;96758;-63
2022/03/09 01:26:12;;;;;;;10.18;2.60;;;20.30;66.60;;;;;;4965605;28;96809;-63
2022/03/09 01:28:44;;;;;;;11.10;2.28;;;20.40;66.70;;;;;;4957417;28;97270;-63
2022/03/09 01:31:14;;;;;;;7.03;2.13;;;20.30;66.50;;;;;;4947648;28;98395;-62
2022/03/09 01:33:46;;;;;;;5.57;2.30;;;20.40;66.80;;;;;;4964890;28;95275;-64
2022/03/09 01:36:17;;;;;;;9.07;2.20;;;20.40;66.70;;;;;;4965462;28;96216;-63
2022/03/09 01:38:50;;;;;;;7.95;1.85;;;20.50;66.60;;;;;;4962446;28;95878;-64
2022/03/09 01:41:21;;;;;;;6.55;1.95;;;20.50;66.50;;;;;;4980363;28;96595;-63
2022/03/09 01:44:14;;;;;;;7.63;2.45;;;20.60;66.30;;;;;;4966068;28;96215;-65
2022/03/09 01:46:48;;;;;;;9.20;2.35;;;20.70;66.10;;;;;;4959394;28;96436;-65
2022/03/09 01:49:21;;;;;;;7.00;2.10;;;20.90;65.90;;;;;;4965452;28;95667;-63
2022/03/09 01:51:58;;;;;;;6.93;1.92;;;21.00;65.90;;;;;;4965835;28;95543;-64
2022/03/09 01:54:29;;;;;;;7.22;2.17;;;21.10;65.30;;;;;;4999003;28;95753;-61
2022/03/09 01:57:00;;;;;;;5.95;2.13;;;21.10;65.20;;;;;;4965624;28;95982;-62
2022/03/09 01:59:32;;;;;;;5.50;1.80;;;21.20;65.20;;;;;;4966334;28;95882;-60
2022/03/09 02:02:03;;;;;;;5.55;1.92;;;21.30;65.20;;;;;;4958272;28;95575;-62
2022/03/09 02:04:33;;;;;;;4.20;1.57;;;21.40;65.00;;;;;;4966592;28;96110;-63
2022/03/09 02:07:03;;;;;;;5.45;1.52;;;21.40;64.90;;;;;;4964813;28;95846;-64
2022/03/09 02:09:47;;;;;;;7.40;2.30;;;21.50;64.40;;;;;;4963561;28;95831;-64
2022/03/09 02:12:19;;;;;;;8.80;1.77;;;21.50;64.80;;;;;;4963813;28;95731;-62
2022/03/09 02:14:51;;;;;;;6.80;2.72;;;21.60;63.30;;;;;;4967626;28;95803;-63
2022/03/09 02:17:28;;;;;;;4.15;1.60;;;21.60;64.10;;;;;;4973350;28;95835;-61
2022/03/09 02:19:58;;;;;;;5.82;1.83;;;21.60;64.00;;;;;;4965398;28;95896;-63
2022/03/09 02:22:33;;;;;;;5.65;1.83;;;21.70;64.00;;;;;;4962479;28;95747;-64
2022/03/09 02:25:11;;;;;;;7.32;1.65;;;21.80;63.90;;;;;;4964687;28;95780;-64
2022/03/09 02:27:44;;;;;;;6.47;1.25;;;21.90;63.20;;;;;;4964424;28;96453;-63
2022/03/09 02:30:19;;;;;;;6.72;1.63;;;21.90;63.60;;;;;;4938115;28;96259;-63
2022/03/09 02:32:51;;;;;;;6.10;2.05;;;21.90;63.50;;;;;;4965860;28;95993;-62
2022/03/09 02:35:22;;;;;;;7.88;2.33;;;22.00;63.00;;;;;;4972342;28;95277;-61
2022/03/09 02:37:53;;;;;;;4.05;1.60;;;22.00;63.00;;;;;;4964977;28;95850;-65
2022/03/09 02:40:24;;;;;;;4.53;1.55;;;22.10;62.80;;;;;;4969507;28;95605;-62
2022/03/09 02:42:54;;;;;;;4.20;1.57;;;22.10;62.90;;;;;;4970012;28;96300;-61
2022/03/09 02:45:25;;;;;;;3.90;1.52;;;22.20;62.90;;;;;;4961780;28;95285;-64
2022/03/09 02:47:56;;;;;;;4.47;1.27;;;22.20;62.80;;;;;;4958051;28;95954;-62
2022/03/09 02:50:27;;;;;;;6.35;1.90;;;22.30;62.60;;;;;;4969393;28;95918;-62
2022/03/09 02:52:57;;;;;;;3.53;1.25;;;22.30;62.60;;;;;;4968075;28;95870;-61
2022/03/09 02:55:27;;;;;;;5.60;1.95;;;22.40;62.30;;;;;;4967650;28;95201;-60
2022/03/09 02:57:57;;;;;;;10.60;1.75;;;22.50;62.40;;;;;;4984637;28;98709;-63
2022/03/09 03:00:29;;;;;;;3.90;1.52;;;22.50;61.20;;;;;;4977827;28;95726;-62
2022/03/09 03:03:01;;;;;;;8.77;2.13;;;22.60;61.90;;;;;;4967220;28;95616;-64
2022/03/09 03:05:32;;;;;;;6.05;1.75;;;22.50;61.20;;;;;;4970578;28;96026;-63
2022/03/09 03:08:03;;;;;;;7.45;1.70;;;22.50;61.70;;;;;;4969940;28;95938;-63
2022/03/09 03:10:34;;;;;;;4.95;1.50;;;22.50;61.60;;;;;;4968957;28;96001;-61
2022/03/09 03:13:05;;;;;;;8.38;1.55;;;22.60;61.70;;;;;;4967918;28;95352;-63
2022/03/09 03:15:36;;;;;;;5.43;1.92;;;22.70;61.70;;;;;;4962557;28;96303;-63
2022/03/09 03:18:07;;;;;;;7.03;1.92;;;22.80;61.70;;;;;;4971546;28;95935;-63
2022/03/09 03:20:38;;;;;;;4.30;2.03;;;22.90;61.50;;;;;;4970136;28;95731;-61
2022/03/09 03:23:09;;;;;;;8.90;2.30;;;22.90;61.50;;;;;;4971469;28;95737;-60
2022/03/09 03:25:39;;;;;;;4.90;1.73;;;22.80;59.30;;;;;;4968032;28;95579;-61
2022/03/09 03:28:11;;;;;;;6.13;1.88;;;22.70;59.20;;;;;;4968154;28;95836;-62
2022/03/09 03:30:41;;;;;;;5.72;1.75;;;22.60;59.70;;;;;;4956240;28;97203;-59
2022/03/09 03:33:14;;;;;;;5.82;1.67;;;22.60;59.90;;;;;;4968042;28;95419;-58
2022/03/09 03:35:46;;;;;;;6.53;2.30;;;22.60;59.70;;;;;;4969703;28;95721;-59
2022/03/09 03:38:18;;;;;;;4.82;1.88;;;22.60;60.10;;;;;;4969359;28;96078;-61
2022/03/09 03:40:49;;;;;;;7.20;2.22;;;22.60;59.80;;;;;;4966558;28;95418;-61
2022/03/09 03:43:19;;;;;;;7.40;1.92;;;22.60;59.40;;;;;;4968009;28;95923;-63
2022/03/09 03:45:50;;;;;;;7.53;1.65;;;22.60;59.10;;;;;;4961186;28;95472;-61
2022/03/09 03:48:21;;;;;;;6.68;2.03;;;22.60;59.30;;;;;;4970117;28;95829;-61
2022/03/09 03:50:52;;;;;;;5.35;1.83;;;22.60;58.90;;;;;;4970975;28;95839;-62
2022/03/09 03:53:21;;;;;;;4.78;1.63;;;22.60;59.30;;;;;;4969299;28;96000;-62
2022/03/09 03:55:51;;;;;;;5.55;1.90;;;22.60;59.20;;;;;;4969016;28;95688;-64
2022/03/09 03:58:21;;;;;;;7.72;2.03;;;22.60;59.20;;;;;;4964001;28;96560;-62
2022/03/09 04:00:51;;;;;;;5.82;1.52;;;22.60;58.70;;;;;;4961045;28;95976;-60
2022/03/09 04:03:22;;;;;;;6.88;1.63;;;22.60;59.50;;;;;;4970050;28;96452;-63
2022/03/09 04:05:53;;;;;;;5.53;1.60;;;22.70;59.60;;;;;;4970378;28;95627;-63
2022/03/09 04:08:23;;;;;;;3.60;1.60;;;22.80;59.60;;;;;;4966574;28;96170;-58
2022/03/09 04:10:55;;;;;;;2.97;1.50;;;22.90;59.70;;;;;;4969933;28;95799;-59
2022/03/09 04:13:25;;;;;;;4.20;1.48;;;23.00;59.70;;;;;;4970381;28;95841;-58
2022/03/09 04:15:56;;;;;;;2.90;1.40;;;23.10;59.80;;;;;;4961543;28;95349;-61
2022/03/09 04:18:27;;;;;;;3.47;1.30;;;23.20;59.90;;;;;;4970066;28;95944;-62
2022/03/09 04:20:58;;;;;;;;;;;23.20;59.60;;;;;;4969553;28;96169;-60
2022/03/09 04:23:30;;;;;;;2.45;1.00;;;23.30;59.80;;;;;;4971043;28;96674;-60
2022/03/09 04:26:06;;;;;;;4.47;1.48;;;23.40;59.80;;;;;;4970357;28;95775;-62
2022/03/09 04:28:38;;;;;;;5.18;1.55;;;23.40;57.10;;;;;;4969943;28;95881;-63
2022/03/09 04:31:09;;;;;;;6.05;2.22;;;23.20;57.20;;;;;;4946827;28;96866;-64
2022/03/09 04:33:41;;;;;;;2.63;1.40;;;23.20;56.30;;;;;;4950494;28;95833;-63
2022/03/09 04:36:13;;;;;;;6.03;1.90;;;23.10;56.50;;;;;;4949310;28;95814;-63
2022/03/09 04:38:44;;;;;;;4.65;1.50;;;23.10;57.00;;;;;;4950148;28;96095;-63
2022/03/09 04:41:16;;;;;;;5.03;1.42;;;23.10;57.20;;;;;;4950425;28;96508;-62
2022/03/09 04:43:49;;;;;;;5.25;1.85;;;23.30;57.10;;;;;;4949911;28;95518;-65
2022/03/09 04:46:20;;;;;;;6.25;1.60;;;23.40;56.80;;;;;;4951378;28;97081;-66
2022/03/09 04:48:50;;;;;;;2.80;1.58;;;23.40;56.80;;;;;;4970128;28;96560;-63
2022/03/09 04:51:20;;;;;;;5.80;1.73;;;23.50;56.60;;;;;;4968997;28;96198;-62
2022/03/09 04:53:50;;;;;;;4.63;2.17;;;23.50;56.50;;;;;;4982186;28;96847;-63
2022/03/09 04:56:20;;;;;;;3.25;1.30;;;23.50;56.10;;;;;;4970721;28;95793;-63
2022/03/09 04:58:50;;;;;;;4.53;1.48;;;23.50;56.20;;;;;;4968209;28;96605;-62
2022/03/09 05:01:20;;;;;;;4.65;1.55;;;23.60;56.80;;;;;;4962602;28;97060;-62
2022/03/09 05:03:55;;;;;;;4.10;1.48;;;23.60;56.00;;;;;;4968026;28;95841;-64
2022/03/09 05:06:27;;;;;;;6.00;1.53;;;23.60;55.40;;;;;;4964112;28;95891;-57
2022/03/09 05:08:58;;;;;;;7.10;2.08;;;23.50;56.20;;;;;;4962689;28;95892;-65
2022/03/09 05:11:34;;;;;;;7.35;1.80;;;23.50;54.90;;;;;;4963852;28;98069;-59
2022/03/09 05:14:05;;;;;;;5.65;1.58;;;23.40;55.60;;;;;;4967085;28;97299;-60
2022/03/09 05:16:35;;;;;;;5.67;1.83;;;23.40;55.80;;;;;;4956554;28;96584;-65
2022/03/09 05:19:07;;;;;;;7.50;2.05;;;23.40;56.40;;;;;;4969130;28;97377;-63
2022/03/09 05:21:37;;;;;;;;;;;23.30;55.60;;;;;;4968444;28;95823;-65
2022/03/09 05:24:28;;;;;;;10.23;1.95;;;23.20;55.50;;;;;;4968464;28;96959;-61
2022/03/09 05:27:00;;;;;;;6.28;1.25;;;23.20;55.40;;;;;;4968014;28;96018;-60
2022/03/09 05:29:30;;;;;;;4.10;1.83;;;23.20;54.10;;;;;;4963358;28;95975;-62
2022/03/09 05:32:01;;;;;;;6.13;1.60;;;23.20;56.20;;;;;;4956748;28;96034;-61
2022/03/09 05:34:32;;;;;;;4.60;1.35;;;23.20;56.30;;;;;;4968150;28;96643;-64
2022/03/09 05:37:03;;;;;;;7.38;1.63;;;23.20;56.20;;;;;;4969969;28;96152;-61
2022/03/09 05:39:34;;;;;;;2.95;1.40;;;23.20;56.30;;;;;;4968301;28;96544;-65
2022/03/09 05:42:05;;;;;;;;;;;23.30;56.20;;;;;;4967700;28;96070;-61
2022/03/09 05:44:36;;;;;;;4.95;1.45;;;23.20;57.00;;;;;;4969350;28;96939;-61
2022/03/09 05:47:10;;;;;;;2.95;1.40;;;23.20;56.70;;;;;;4961939;28;95673;-62
2022/03/09 05:49:40;;;;;;;3.45;1.52;;;23.30;56.70;;;;;;4968335;28;96001;-66
2022/03/09 05:52:10;;;;;;;4.20;1.40;;;23.30;56.60;;;;;;4967013;28;95909;-61
2022/03/09 05:54:40;;;;;;;6.20;1.73;;;23.30;56.70;;;;;;4968180;28;95957;-63
2022/03/09 05:57:12;;;;;;;5.57;1.77;;;23.20;55.50;;;;;;4968791;28;95361;-63
2022/03/09 05:59:42;;;;;;;3.38;1.20;;;23.20;55.70;;;;;;4966096;28;95926;-64
2022/03/09 06:02:13;;;;;;;5.93;1.77;;;23.20;56.30;;;;;;4959184;28;96048;-59
2022/03/09 06:04:45;;;;;;;3.15;1.38;;;23.30;56.10;;;;;;4969762;28;96385;-59
2022/03/09 06:07:15;;;;;;;2.15;1.05;;;23.20;55.40;;;;;;4969881;28;95753;-60
2022/03/09 06:09:46;;;;;;;4.25;1.52;;;23.20;55.80;;;;;;4965219;28;97580;-62
2022/03/09 06:12:18;;;;;;;3.40;1.23;;;23.20;55.80;;;;;;4968402;28;95704;-60
2022/03/09 06:14:48;;;;;;;;;;;23.20;56.00;;;;;;4966360;28;96140;-62
2022/03/09 06:17:21;;;;;;;2.28;1.27;;;23.20;55.70;;;;;;4962074;28;95658;-63
2022/03/09 06:19:53;;;;;;;6.43;1.40;;;23.20;55.90;;;;;;4967956;28;96665;-63
2022/03/09 06:22:23;;;;;;;4.47;1.50;;;23.20;55.80;;;;;;4962262;28;95959;-64
2022/03/09 06:24:55;;;;;;;8.07;2.10;;;23.30;56.00;;;;;;4968562;28;95885;-61
2022/03/09 06:27:26;;;;;;;3.88;1.67;;;23.30;55.60;;;;;;4969756;28;95395;-62
2022/03/09 06:29:57;;;;;;;3.07;1.43;;;23.30;55.70;;;;;;4961942;28;95797;-60
2022/03/09 06:32:29;;;;;;;3.85;2.03;;;23.20;54.80;;;;;;4954946;28;95968;-63
2022/03/09 06:35:04;;;;;;;5.15;1.58;;;23.20;55.70;;;;;;4963517;28;98609;-60
2022/03/09 06:37:36;;;;;;;5.35;1.52;;;23.20;55.90;;;;;;4967816;28;95268;-62
2022/03/09 06:40:09;;;;;;;5.10;1.40;;;23.30;56.00;;;;;;4969347;28;96621;-61
2022/03/09 06:42:40;;;;;;;6.10;1.80;;;23.20;54.70;;;;;;4968589;28;98356;-63
2022/03/09 06:45:11;;;;;;;5.43;2.00;;;23.10;55.30;;;;;;4984848;28;96285;-63
2022/03/09 06:47:42;;;;;;;5.18;1.45;;;23.10;55.60;;;;;;4941147;28;96322;-62
2022/03/09 06:50:13;;;;;;;6.45;1.90;;;23.10;56.30;;;;;;4941179;28;95867;-61
2022/03/09 06:52:42;;;;;;;7.57;1.10;;;23.10;56.00;;;;;;4942559;28;96736;-62
2022/03/09 06:55:13;;;;;;;5.47;1.70;;;23.10;55.40;;;;;;4939535;28;96937;-61
2022/03/09 06:57:42;;;;;;;3.17;1.25;;;23.10;55.80;;;;;;4957963;28;95932;-62
2022/03/09 07:00:14;;;;;;;4.00;1.58;;;23.00;55.10;;;;;;4930450;28;98059;-60
2022/03/09 07:02:46;;;;;;;7.15;1.77;;;23.00;55.40;;;;;;4961265;28;101639;-62
2022/03/09 07:05:17;;;;;;;8.10;2.15;;;23.00;55.40;;;;;;4962319;28;98193;-61
2022/03/09 07:07:49;;;;;;;7.45;1.50;;;23.00;55.20;;;;;;4961256;28;96328;-61
2022/03/09 07:10:20;;;;;;;4.18;1.77;;;22.90;55.40;;;;;;4961808;28;95954;-61
2022/03/09 07:12:51;;;;;;;4.40;1.70;;;23.00;56.10;;;;;;4962480;28;95644;-61
2022/03/09 07:15:21;;;;;;;3.93;1.67;;;23.00;56.20;;;;;;4955744;28;96887;-62
2022/03/09 07:17:54;;;;;;;9.73;2.22;;;22.90;56.00;;;;;;4962019;28;95890;-61
2022/03/09 07:20:26;;;;;;;4.63;1.50;;;22.90;54.90;;;;;;4962681;28;95896;-61
2022/03/09 07:22:56;;;;;;;;;;;22.90;55.60;;;;;;4965638;28;96826;-61
2022/03/09 07:25:30;;;;;;;5.78;1.92;;;22.80;55.30;;;;;;4967149;28;95968;-61
2022/03/09 07:28:11;;;;;;;4.93;2.13;;;22.80;55.40;;;;;;4967125;28;96493;-59
2022/03/09 07:30:41;;;;;;;7.25;1.38;;;22.80;55.40;;;;;;4958723;28;96019;-60
2022/03/09 07:33:16;;;;;;;6.22;2.08;;;22.70;54.90;;;;;;4960691;28;95729;-61
2022/03/09 07:35:50;;;;;;;4.90;1.42;;;22.70;54.90;;;;;;4963155;28;95885;-61
2022/03/09 07:38:20;;;;;;;4.72;1.55;;;22.70;55.10;;;;;;4967705;28;95918;-60
2022/03/09 07:40:51;;;;;;;9.45;1.70;;;22.70;54.70;;;;;;4965634;28;96083;-61
2022/03/09 07:43:22;;;;;;;4.85;1.88;;;22.70;53.80;;;;;;4982602;28;97657;-61
2022/03/09 07:45:54;;;;;;;9.57;1.70;;;22.60;55.20;;;;;;4961008;28;95636;-62
2022/03/09 07:48:24;;;;;;;8.43;2.28;;;22.60;54.00;;;;;;4994605;28;95595;-60
2022/03/09 07:50:59;;;;;;;6.55;1.65;;;22.60;55.10;;;;;;4965502;28;96513;-61
2022/03/09 07:53:29;;;;;;;6.13;2.13;;;22.60;55.60;;;;;;4964708;28;95837;-60
2022/03/09 07:55:58;;;;;;;7.38;1.85;;;22.60;55.60;;;;;;4960536;28;95930;-60
2022/03/09 07:58:30;;;;;;;4.05;1.80;;;22.60;55.00;;;;;;4994581;28;96419;-61
2022/03/09 08:01:00;;;;;;;7.05;1.58;;;22.50;55.00;;;;;;4955881;28;98106;-61
2022/03/09 08:03:32;;;;;;;;;;;22.50;55.40;;;;;;4965582;28;95925;-61
2022/03/09 08:06:07;;;;;;;3.38;1.77;;;22.50;55.50;;;;;;4965833;28;95950;-61
2022/03/09 08:08:38;;;;;;;6.68;1.90;;;22.50;55.80;;;;;;4965863;28;95630;-61
2022/03/09 08:11:11;;;;;;;6.30;1.58;;;22.50;55.40;;;;;;4963869;28;96489;-61
2022/03/09 08:13:43;;;;;;;5.65;1.95;;;22.50;55.60;;;;;;4963031;28;96408;-60
2022/03/09 08:16:14;;;;;;;6.18;1.67;;;22.50;55.90;;;;;;4960666;28;96013;-61
2022/03/09 08:18:46;;;;;;;8.48;2.08;;;22.50;56.30;;;;;;4965476;28;96163;-62
2022/03/09 08:21:17;;;;;;;8.80;1.75;;;22.50;55.90;;;;;;4962924;28;96010;-61
2022/03/09 08:23:47;;;;;;;;;;;22.50;56.30;;;;;;4965322;28;96316;-61
2022/03/09 08:26:18;;;;;;;6.18;2.00;;;22.50;55.60;;;;;;4966222;28;98531;-61
2022/03/09 08:28:53;;;;;;;4.80;1.63;;;22.50;55.40;;;;;;4964959;28;95908;-60
2022/03/09 08:31:24;;;;;;;4.57;1.20;;;22.50;55.40;;;;;;4957333;28;95872;-60
2022/03/09 08:33:55;;;;;;;7.20;1.73;;;22.40;55.10;;;;;;4958284;28;95955;-60
2022/03/09 08:36:26;;;;;;;6.32;2.00;;;22.40;56.30;;;;;;4962514;28;96722;-60
2022/03/09 08:38:57;;;;;;;7.32;1.77;;;22.30;55.30;;;;;;4963812;28;95433;-62
2022/03/09 08:41:30;;;;;;;5.95;1.85;;;22.20;55.50;;;;;;4965049;28;95846;-59
2022/03/09 08:44:03;;;;;;;8.75;2.00;;;22.20;55.00;;;;;;4964636;28;95908;-57
2022/03/09 08:46:37;;;;;;;9.32;2.20;;;22.20;55.30;;;;;;4957214;28;95800;-59
2022/03/09 08:49:07;;;;;;;7.63;1.98;;;22.10;54.80;;;;;;4965088;28;96087;-61
2022/03/09 08:51:37;;;;;;;4.45;1.48;;;22.10;55.30;;;;;;4964869;28;96197;-58
2022/03/09 08:54:08;;;;;;;5.40;1.67;;;22.10;54.60;;;;;;4962671;28;96074;-59
2022/03/09 08:56:38;;;;;;;;;;;22.10;54.70;;;;;;4964666;28;96381;-58
2022/03/09 08:59:09;;;;;;;7.75;1.73;;;22.00;54.20;;;;;;4966145;28;95933;-58
2022/03/09 09:01:42;;;;;;;7.40;2.05;;;22.00;54.70;;;;;;4957257;28;97045;-58
2022/03/09 09:04:16;;;;;;;11.00;2.20;;;22.00;54.50;;;;;;4963656;28;96153;-61
2022/03/09 09:06:48;;;;;;;7.20;1.88;;;21.90;55.20;;;;;;4964561;28;96898;-58
2022/03/09 09:09:20;;;;;;;6.25;1.67;;;21.90;55.50;;;;;;4963177;28;99391;-59
2022/03/09 09:11:54;;;;;;;6.93;1.65;;;21.90;55.60;;;;;;4962808;28;95881;-65
2022/03/09 09:14:28;;;;;;;4.60;1.92;;;21.90;55.60;;;;;;4964044;28;95897;-62
2022/03/09 09:16:59;;;;;;;5.18;1.45;;;21.80;55.60;;;;;;4955655;28;96772;-62
2022/03/09 09:19:33;;;;;;;9.15;2.55;;;21.70;55.60;;;;;;4966004;28;96036;-62
2022/03/09 09:22:04;;;;;;;9.40;2.22;;;21.60;56.10;;;;;;4964997;28;96629;-58
2022/03/09 09:24:40;;;;;;;8.05;1.83;;;21.60;56.00;;;;;;4979308;28;98464;-58
2022/03/09 09:27:10;;;;;;;;;;;21.50;56.40;;;;;;4965196;28;97278;-61
2022/03/09 09:30:02;;;;;;;4.43;1.83;;;21.50;56.40;;;;;;4965876;28;97844;-58
2022/03/09 09:32:34;;;;;;;7.15;2.30;;;21.50;56.70;;;;;;4938413;28;96825;-59
2022/03/09 09:35:07;;;;;;;5.22;1.75;;;21.40;56.70;;;;;;4939952;28;96678;-61
2022/03/09 09:37:38;;;;;;;8.05;1.92;;;21.40;56.90;;;;;;4944768;28;95345;-59
2022/03/09 09:40:10;;;;;;;5.57;1.27;;;21.40;57.10;;;;;;4944912;28;95804;-57
2022/03/09 09:42:42;;;;;;;6.97;1.88;;;21.30;56.20;;;;;;4947616;28;95943;-61
2022/03/09 09:45:22;;;;;;;;;;;21.20;57.20;;;;;;4970007;28;96499;-59
2022/03/09 09:47:52;;;;;;;10.55;2.80;;;21.30;57.40;;;;;;4970495;28;96203;-58
2022/03/09 09:50:23;;;;;;;7.53;2.30;;;21.30;57.50;;;;;;4968008;28;95694;-60
2022/03/09 09:52:53;;;;;;;6.53;1.60;;;21.30;57.50;;;;;;4969717;28;96312;-57
2022/03/09 09:55:27;;;;;;;6.73;2.00;;;21.20;57.10;;;;;;4967663;28;97026;-58
2022/03/09 09:57:57;;;;;;;5.15;2.05;;;21.10;57.80;;;;;;4969899;28;95741;-60
2022/03/09 10:00:29;;;;;;;4.30;1.30;;;21.10;57.70;;;;;;4961793;28;96936;-58
2022/03/09 10:03:06;;;;;;;6.45;1.98;;;20.90;58.30;;;;;;4967730;28;96466;-60
2022/03/09 10:05:37;;;;;;;6.82;1.92;;;20.80;58.30;;;;;;4966787;28;95978;-57
2022/03/09 10:08:14;;;;;;;6.65;1.92;;;20.70;58.30;;;;;;4970827;28;95916;-59
2022/03/09 10:11:01;;;;;;;6.90;2.03;;;20.70;58.70;;;;;;4969571;28;96180;-61
2022/03/09 10:13:40;;;;;;;6.63;1.52;;;20.60;58.80;;;;;;4970863;28;95755;-62
2022/03/09 10:16:12;;;;;;;7.90;1.67;;;20.50;59.10;;;;;;4962159;28;95373;-58
2022/03/09 10:18:50;;;;;;;8.18;2.03;;;20.50;59.20;;;;;;4969348;28;95299;-62
2022/03/09 10:21:28;;;;;;;4.97;1.27;;;20.50;59.50;;;;;;4970884;28;96002;-60
2022/03/09 10:24:08;;;;;;;4.15;1.10;;;20.50;60.10;;;;;;4968846;28;96588;-60
2022/03/09 10:26:39;;;;;;;6.10;1.90;;;20.50;60.00;;;;;;4968823;28;95520;-61
2022/03/09 10:29:15;;;;;;;5.60;1.58;;;20.50;60.20;;;;;;4969825;28;95847;-61
2022/03/09 10:31:52;;;;;;;3.28;1.63;;;20.60;60.20;;;;;;4958408;28;95887;-62
2022/03/09 10:34:30;;;;;;;7.93;1.80;;;20.70;59.90;;;;;;4961467;28;96528;-60
2022/03/09 10:37:05;;;;;;;4.82;1.40;;;20.70;59.80;;;;;;4968538;28;95436;-61
2022/03/09 10:39:37;;;;;;;4.70;1.55;;;20.70;60.00;;;;;;4969234;28;95859;-60
2022/03/09 10:42:24;;;;;;;6.72;1.75;;;20.70;60.60;;;;;;4970226;28;95795;-61
2022/03/09 10:44:55;;;;;;;5.05;1.40;;;20.80;60.50;;;;;;4967999;28;96459;-61
2022/03/09 10:47:38;;;;;;;6.43;1.77;;;20.70;60.50;;;;;;4956974;28;96873;-61
2022/03/09 10:50:18;;;;;;;6.57;1.42;;;20.60;60.10;;;;;;4970186;28;96601;-59
2022/03/09 10:53:08;;;;;;;9.65;2.03;;;20.50;60.60;;;;;;4968601;28;96241;-61
2022/03/09 10:55:38;;;;;;;8.35;2.17;;;20.50;61.00;;;;;;4968356;28;95987;-62
2022/03/09 10:58:21;;;;;;;7.57;1.98;;;20.40;61.20;;;;;;4971447;28;95986;-61
2022/03/09 11:00:54;;;;;;;6.38;1.63;;;20.40;61.40;;;;;;4962499;28;96763;-63
2022/03/09 11:03:33;;;;;;;4.22;1.40;;;20.40;61.50;;;;;;4969568;28;95839;-61
2022/03/09 11:06:06;;;;;;;4.75;1.48;;;20.40;61.20;;;;;;4969603;28;95852;-59
2022/03/09 11:08:38;;;;;;;9.40;1.83;;;20.30;61.50;;;;;;4981882;28;96186;-58
2022/03/09 11:11:14;;;;;;;9.32;1.80;;;20.20;61.00;;;;;;4968387;28;95806;-59
2022/03/09 11:13:45;;;;;;;10.30;2.10;;;20.00;61.30;;;;;;4969332;28;95332;-60
2022/03/09 11:16:19;;;;;;;8.82;2.17;;;20.00;61.50;;;;;;4962776;28;96391;-59
2022/03/09 11:18:51;;;;;;;9.18;2.28;;;19.90;61.30;;;;;;4969355;28;95807;-61
2022/03/09 11:21:22;;;;;;;7.78;1.60;;;19.90;61.20;;;;;;4969258;28;95818;-61
2022/03/09 11:23:57;;;;;;;7.10;2.38;;;19.80;61.70;;;;;;4968407;28;95725;-59
2022/03/09 11:26:30;;;;;;;8.38;2.03;;;19.70;62.20;;;;;;4966806;28;95897;-60
2022/03/09 11:29:05;;;;;;;6.90;1.67;;;19.70;62.30;;;;;;4969334;28;95856;-59
2022/03/09 11:31:49;;;;;;;7.18;1.95;;;19.50;62.40;;;;;;4961866;28;95940;-61
2022/03/09 11:34:43;;;;;;;8.32;2.22;;;19.40;62.80;;;;;;4957817;28;96065;-61
2022/03/09 11:37:17;;;;;;;7.25;1.58;;;19.30;62.90;;;;;;4969989;28;96553;-59
2022/03/09 11:40:06;;;;;;;9.77;1.80;;;19.20;63.50;;;;;;4969386;28;95798;-57
2022/03/09 11:42:43;;;;;;;8.10;2.03;;;19.20;63.30;;;;;;4968523;28;95667;-59
2022/03/09 11:45:17;;;;;;;5.88;1.35;;;19.30;63.20;;;;;;4977995;28;95751;-61
2022/03/09 11:47:58;;;;;;;9.25;1.80;;;19.40;63.50;;;;;;4967883;28;100880;-59
2022/03/09 11:50:50;;;;;;;9.57;1.50;;;19.50;63.40;;;;;;4968065;28;95817;-60
2022/03/09 11:53:41;;;;;;;6.95;1.83;;;19.50;63.20;;;;;;4957869;28;96029;-61
2022/03/09 11:56:27;;;;;;;8.23;2.22;;;19.60;63.40;;;;;;4967280;28;95872;-59
2022/03/09 11:59:11;;;;;;;10.38;2.08;;;19.60;63.30;;;;;;4966290;28;95847;-58
2022/03/09 12:02:00;;;;;;;6.97;1.70;;;19.60;62.50;;;;;;4956296;28;96164;-60
2022/03/09 12:04:42;;;;;;;9.15;2.20;;;19.50;63.00;;;;;;4968905;28;96201;-59
2022/03/09 12:07:14;;;;;;;7.85;1.90;;;19.50;63.40;;;;;;4967933;28;96040;-59
2022/03/09 12:09:58;;;;;;;7.78;1.75;;;19.50;63.30;;;;;;4970290;28;96321;-60
2022/03/09 12:12:31;;;;;;;9.63;1.25;;;19.40;63.60;;;;;;4971377;28;96902;-59
2022/03/09 12:15:12;;;;;;;11.07;1.67;;;19.40;63.90;;;;;;4964876;28;96597;-59
2022/03/09 12:17:47;;;;;;;5.45;1.20;;;19.40;63.60;;;;;;4963298;28;96596;-58
2022/03/09 12:20:30;;;;;;;4.88;1.83;;;19.50;64.50;;;;;;4969984;28;96577;-59
2022/03/09 12:23:04;;;;;;;8.23;1.40;;;19.50;63.60;;;;;;4970571;28;95708;-58
2022/03/09 12:25:46;;;;;;;7.72;1.50;;;19.70;64.30;;;;;;4971273;28;96775;-56
2022/03/09 12:28:35;;;;;;;6.45;1.65;;;20.00;62.80;;;;;;4970272;28;96507;-60
2022/03/09 12:31:19;;;;;;;6.63;2.20;;;20.20;62.80;;;;;;4962921;28;97756;-59
2022/03/09 12:33:55;;;;;;;2.33;1.25;;;20.40;62.20;;;;;;4963284;28;95414;-61
2022/03/09 12:36:26;;;;;;;6.72;1.80;;;20.60;62.10;;;;;;4970482;28;97044;-61
2022/03/09 12:39:04;;;;;;;7.18;1.33;;;20.80;61.30;;;;;;4971383;28;96376;-62
2022/03/09 12:41:37;;;;;;;5.68;1.70;;;21.00;61.60;;;;;;4970596;28;96693;-61
2022/03/09 12:44:14;;;;;;;2.65;0.95;;;21.20;61.10;;;;;;4967200;28;96396;-62
2022/03/09 12:46:49;;;;;;;3.95;1.45;;;21.20;61.00;;;;;;4963668;28;95615;-60
2022/03/09 12:49:29;;;;;;;5.32;1.25;;;21.40;60.90;;;;;;4971618;28;95979;-62
2022/03/09 12:52:06;;;;;;;2.70;1.00;;;21.50;60.50;;;;;;4971849;28;96675;-64
2022/03/09 12:54:37;;;;;;;8.98;1.88;;;21.60;60.70;;;;;;4971782;28;96250;-62
2022/03/09 12:57:17;;;;;;;4.82;1.15;;;21.70;60.10;;;;;;4971882;28;95598;-61
2022/03/09 12:59:58;;;;;;;3.33;1.05;;;21.90;59.70;;;;;;4971922;28;95833;-61
2022/03/09 13:02:52;;;;;;;;;;;21.90;59.80;;;;;;4951646;28;98196;-62
2022/03/09 13:05:28;;;;;;;4.03;1.27;;;21.90;59.90;;;;;;4951922;28;95602;-62
2022/03/09 13:08:03;;;;;;;2.63;1.38;;;22.00;59.40;;;;;;4950544;28;98203;-58
2022/03/09 13:10:49;;;;;;;7.50;2.10;;;22.10;59.80;;;;;;4950534;28;95811;-59
2022/03/09 13:13:29;;;;;;;4.68;1.42;;;22.00;58.00;;;;;;4947500;28;95936;-58
2022/03/09 13:16:00;;;;;;;9.35;1.50;;;21.80;58.40;;;;;;4941090;28;95807;-60
2022/03/09 13:18:34;;;;;;;6.32;1.75;;;21.50;58.60;;;;;;4944840;28;95882;-58
2022/03/09 13:21:05;;;;;;;9.18;2.22;;;21.40;58.70;;;;;;4945794;28;95956;-59